Time;durP1;ratioP1;P1;durP2;ratioP2;P2;SDS_P1;SDS_P2;PMS_P1;PMS_P2;Temp;Humidity;BMP_temperature;BMP_pressure;BME280_temperature;BME280_humidity;BME280_pressure;Samples;Min_cycle;Max_cycle;Signal;HPM_P1;HPM_P2
2023/12/31 00:02:00;;;;;;;342.33;324.90;;;;;;;5.92;100.00;100713.75;5027398;28;20457;-43
2023/12/31 00:04:28;;;;;;;340.60;324.17;;;;;;;5.92;100.00;100708.47;5027822;28;21074;-42
2023/12/31 00:06:56;;;;;;;353.93;336.10;;;;;;;5.88;100.00;100717.75;5011530;28;20437;-46
2023/12/31 00:09:23;;;;;;;342.77;324.90;;;;;;;5.86;100.00;100713.59;5020174;28;20433;-42
2023/12/31 00:11:51;;;;;;;344.30;327.03;;;;;;;5.84;100.00;100705.81;5007427;28;20971;-44
2023/12/31 00:14:19;;;;;;;352.57;334.70;;;;;;;5.83;100.00;100696.19;5023606;28;20432;-42
2023/12/31 00:16:48;;;;;;;333.63;317.23;;;;;;;5.84;100.00;100689.91;5022954;28;20502;-43
2023/12/31 00:19:17;;;;;;;339.17;323.00;;;;;;;5.83;100.00;100688.25;5016654;28;20525;-42
2023/12/31 00:21:45;;;;;;;332.37;314.53;;;;;;;5.86;100.00;100684.47;5011935;28;20536;-44
2023/12/31 00:24:13;;;;;;;340.23;322.97;;;;;;;5.88;100.00;100680.69;5020245;28;20480;-43
2023/12/31 00:26:41;;;;;;;326.93;309.30;;;;;;;5.90;100.00;100686.63;5013408;28;20437;-43
2023/12/31 00:29:08;;;;;;;314.47;298.10;;;;;;;5.92;100.00;100684.63;5025705;28;20441;-43
2023/12/31 00:31:37;;;;;;;316.20;300.20;;;;;;;5.94;100.00;100682.63;5019673;28;20877;-42
2023/12/31 00:34:05;;;;;;;322.97;306.63;;;;;;;5.97;100.00;100686.81;5025107;28;20912;-44
2023/12/31 00:36:34;;;;;;;317.77;301.60;;;;;;;5.98;100.00;100683.97;5014578;28;20533;-42
2023/12/31 00:39:02;;;;;;;335.17;318.20;;;;;;;6.01;100.00;100686.28;5010943;28;20532;-46
2023/12/31 00:41:30;;;;;;;330.40;313.27;;;;;;;6.03;100.00;100689.56;5019490;28;20432;-43
2023/12/31 00:43:58;;;;;;;328.50;312.40;;;;;;;6.05;100.00;100682.31;5012922;28;20567;-46
2023/12/31 00:46:26;;;;;;;342.67;325.30;;;;;;;6.07;100.00;100677.66;5015291;28;20433;-41
2023/12/31 00:48:54;;;;;;;335.93;319.57;;;;;;;6.09;100.00;100677.50;5014327;28;20519;-43
2023/12/31 00:51:22;;;;;;;331.07;314.63;;;;;;;6.12;100.00;100677.16;5023851;28;20479;-43
2023/12/31 00:53:51;;;;;;;332.43;316.83;;;;;;;6.14;100.00;100675.19;5023566;28;20480;-42
2023/12/31 00:56:21;;;;;;;336.60;320.70;;;;;;;6.17;100.00;100674.00;5015094;28;20916;-42
2023/12/31 00:58:49;;;;;;;343.10;326.60;;;;;;;6.18;100.00;100673.84;5025182;28;20478;-45
2023/12/31 01:01:17;;;;;;;347.23;330.73;;;;;;;6.20;100.00;100660.44;5019556;28;20441;-43
2023/12/31 01:03:45;;;;;;;334.37;317.30;;;;;;;6.20;100.00;100663.06;5014685;28;20471;-42
2023/12/31 01:06:13;;;;;;;338.50;322.07;;;;;;;6.21;100.00;100654.16;5021017;28;20523;-42
2023/12/31 01:08:41;;;;;;;333.27;316.93;;;;;;;6.19;100.00;100650.81;5024043;28;20547;-44
2023/12/31 01:11:10;;;;;;;340.80;324.30;;;;;;;6.22;100.00;100650.47;5022935;28;20437;-42
2023/12/31 01:13:38;;;;;;;341.43;324.13;;;;;;;6.20;100.00;100649.84;5016083;28;20467;-43
2023/12/31 01:16:07;;;;;;;338.80;322.03;;;;;;;6.21;100.00;100659.44;5026721;28;20884;-43
2023/12/31 01:18:34;;;;;;;338.00;320.43;;;;;;;6.18;100.00;100655.31;5017410;28;20465;-47
2023/12/31 01:21:03;;;;;;;339.93;323.87;;;;;;;6.17;100.00;100647.53;5021807;28;20987;-44
2023/12/31 01:23:31;;;;;;;336.53;320.83;;;;;;;6.15;100.00;100644.22;5022205;28;20487;-44
2023/12/31 01:25:59;;;;;;;335.80;319.50;;;;;;;6.13;100.00;100642.56;5021923;28;20473;-45
2023/12/31 01:28:28;;;;;;;338.50;321.47;;;;;;;6.12;100.00;100638.25;5021585;28;20512;-42
2023/12/31 01:30:56;;;;;;;340.53;323.70;;;;;;;6.10;100.00;100632.31;5022757;28;20441;-42
2023/12/31 01:33:24;;;;;;;338.50;321.83;;;;;;;6.07;100.00;100637.13;5021427;28;20490;-42
2023/12/31 01:35:52;;;;;;;335.03;318.47;;;;;;;6.05;100.00;100636.47;5026023;28;20425;-43
2023/12/31 01:38:19;;;;;;;337.30;321.23;;;;;;;6.01;100.00;100638.63;5019170;28;20457;-44
2023/12/31 01:40:52;;;;;;;339.33;323.10;;;;;;;5.98;100.00;100638.97;5024731;28;20440;-42
2023/12/31 01:43:20;;;;;;;337.73;321.40;;;;;;;5.97;100.00;100628.56;5019069;28;20476;-44
2023/12/31 01:45:50;;;;;;;345.73;329.03;;;;;;;5.95;100.00;100628.72;5030718;28;20959;-42
2023/12/31 01:48:18;;;;;;;335.53;320.10;;;;;;;5.95;100.00;100630.53;5014141;28;20893;-43
2023/12/31 01:50:46;;;;;;;343.07;327.60;;;;;;;5.95;100.00;100626.06;5016794;28;20786;-44
2023/12/31 01:53:15;;;;;;;344.37;327.70;;;;;;;5.94;100.00;100621.75;5020021;28;20460;-42
2023/12/31 01:55:44;;;;;;;340.57;324.33;;;;;;;5.93;100.00;100611.38;5014299;28;20437;-42
2023/12/31 01:58:12;;;;;;;336.23;320.23;;;;;;;5.94;100.00;100615.66;5022491;28;20460;-43
2023/12/31 02:00:40;;;;;;;334.43;318.23;;;;;;;5.94;100.00;100611.19;5015432;28;20785;-43
2023/12/31 02:03:10;;;;;;;330.50;314.30;;;;;;;5.96;100.00;100617.16;5029282;28;20863;-43
2023/12/31 02:05:38;;;;;;;339.17;323.03;;;;;;;5.97;100.00;100613.50;5013814;28;20477;-42
2023/12/31 02:08:06;;;;;;;336.13;320.03;;;;;;;6.01;100.00;100620.09;5026432;28;20898;-44
2023/12/31 02:10:34;;;;;;;334.60;319.00;;;;;;;6.03;100.00;100609.38;5025576;28;20437;-42
2023/12/31 02:13:02;;;;;;;333.50;318.10;;;;;;;6.05;100.00;100610.84;5014292;28;20531;-42
2023/12/31 02:15:31;;;;;;;329.30;314.00;;;;;;;6.09;100.00;100608.69;5022402;28;21015;-42
2023/12/31 02:18:00;;;;;;;335.90;319.40;;;;;;;6.12;100.00;100609.13;5013903;28;20468;-43
2023/12/31 02:20:31;;;;;;;332.03;315.70;;;;;;;6.16;100.00;100599.03;5022442;28;20463;-41
2023/12/31 02:23:00;;;;;;;330.33;315.13;;;;;;;6.17;100.00;100598.06;5009660;28;20502;-44
2023/12/31 02:25:29;;;;;;;331.43;315.53;;;;;;;6.18;100.00;100597.06;5025803;28;20853;-42
2023/12/31 02:27:59;;;;;;;329.13;313.20;;;;;;;6.22;100.00;100597.53;5024692;28;20456;-42
2023/12/31 02:30:26;;;;;;;329.50;313.60;;;;;;;6.24;100.00;100587.59;5025560;28;20955;-42
2023/12/31 02:32:55;;;;;;;332.97;317.47;;;;;;;6.25;100.00;100589.22;5013878;28;21002;-46
2023/12/31 02:35:23;;;;;;;339.33;323.27;;;;;;;6.25;100.00;100586.59;5015114;28;20429;-42
2023/12/31 02:37:50;;;;;;;338.30;322.70;;;;;;;6.27;100.00;100587.25;5021478;28;20844;-41
2023/12/31 02:40:20;;;;;;;345.43;328.93;;;;;;;6.29;100.00;100574.66;5014221;28;20460;-42
2023/12/31 02:42:48;;;;;;;339.63;323.87;;;;;;;6.31;100.00;100581.44;5013747;28;20487;-41
2023/12/31 02:45:17;;;;;;;342.53;327.27;;;;;;;6.31;100.00;100575.31;5037566;23;20476;-35
2023/12/31 02:47:46;;;;;;;343.03;327.20;;;;;;;6.36;100.00;100586.22;5058088;28;20466;-36
2023/12/31 02:50:15;;;;;;;335.57;319.57;;;;;;;6.40;100.00;100574.25;5049191;28;20438;-37
2023/12/31 02:52:42;;;;;;;332.47;317.00;;;;;;;6.42;100.00;100567.78;5062262;28;20496;-36
2023/12/31 02:55:10;;;;;;;333.30;318.43;;;;;;;6.46;100.00;100569.09;5047420;28;20511;-39
2023/12/31 02:57:38;;;;;;;333.50;318.60;;;;;;;6.49;100.00;100562.63;5042873;28;20471;-38
2023/12/31 03:00:08;;;;;;;333.27;317.33;;;;;;;6.51;100.00;100552.69;5043432;28;20463;-40
2023/12/31 03:02:37;;;;;;;334.57;319.10;;;;;;;6.53;100.00;100563.94;5043277;28;20517;-36
2023/12/31 03:05:05;;;;;;;345.37;329.50;;;;;;;6.56;100.00;100563.59;5027772;28;20443;-37
2023/12/31 03:07:33;;;;;;;335.93;320.20;;;;;;;6.58;100.00;100554.47;5034747;28;20470;-38
2023/12/31 03:10:01;;;;;;;332.83;317.53;;;;;;;6.59;100.00;100548.19;5039452;28;20428;-37
2023/12/31 03:12:29;;;;;;;335.47;319.80;;;;;;;6.62;100.00;100544.34;5023318;28;20468;-37
2023/12/31 03:14:57;;;;;;;337.50;322.03;;;;;;;6.65;100.00;100544.81;5023398;28;20479;-36
2023/12/31 03:17:25;;;;;;;335.87;320.77;;;;;;;6.67;100.00;100544.63;5039050;28;20472;-37
2023/12/31 03:19:54;;;;;;;343.03;327.53;;;;;;;6.68;100.00;100536.53;5020637;28;20443;-40
2023/12/31 03:22:22;;;;;;;350.40;335.07;;;;;;;6.69;100.00;100535.50;5038905;28;20435;-40
2023/12/31 03:25:05;;;;;;;344.40;328.63;;;;;;;6.69;100.00;100530.19;5031573;28;20444;-38
2023/12/31 03:27:33;;;;;;;344.57;329.27;;;;;;;6.69;100.00;100535.50;5022884;28;20471;-39
2023/12/31 03:30:01;;;;;;;341.73;325.67;;;;;;;6.69;100.00;100530.19;5019393;28;20437;-37
2023/12/31 03:32:29;;;;;;;353.00;337.30;;;;;;;6.73;100.00;100529.84;5033681;28;20435;-39
2023/12/31 03:34:58;;;;;;;347.47;331.97;;;;;;;6.73;100.00;100527.19;5023629;28;20447;-37
2023/12/31 03:37:26;;;;;;;355.43;339.23;;;;;;;6.74;100.00;100524.38;5022182;28;21090;-37
2023/12/31 03:39:54;;;;;;;342.10;326.60;;;;;;;6.71;100.00;100519.44;5036822;28;20439;-38
2023/12/31 03:42:22;;;;;;;348.13;332.13;;;;;;;6.72;100.00;100521.06;5031715;28;20448;-38
2023/12/31 03:44:50;;;;;;;350.43;334.87;;;;;;;6.74;100.00;100519.09;5039398;28;20534;-37
2023/12/31 03:47:18;;;;;;;343.93;328.50;;;;;;;6.75;100.00;100520.72;5018503;28;20492;-39
2023/12/31 03:49:45;;;;;;;342.93;327.43;;;;;;;6.76;100.00;100513.59;5035362;28;20440;-38
2023/12/31 03:52:15;;;;;;;338.97;323.70;;;;;;;6.76;100.00;100508.28;5019217;28;20503;-38
2023/12/31 03:54:43;;;;;;;332.30;317.07;;;;;;;6.75;100.00;100504.81;5019680;28;20811;-38
2023/12/31 03:57:10;;;;;;;339.17;323.73;;;;;;;6.75;100.00;100499.50;5026606;28;20466;-39
2023/12/31 03:59:38;;;;;;;333.40;319.00;;;;;;;6.77;100.00;100488.75;5026348;28;20437;-37
2023/12/31 04:02:06;;;;;;;334.73;319.63;;;;;;;6.77;100.00;100489.59;5034744;28;20447;-38
2023/12/31 04:04:34;;;;;;;327.83;314.13;;;;;;;6.77;100.00;100481.63;5027415;28;20463;-38
2023/12/31 04:07:02;;;;;;;332.57;318.13;;;;;;;6.78;100.00;100480.59;5040695;28;20462;-37
2023/12/31 04:09:31;;;;;;;322.03;307.73;;;;;;;6.79;100.00;100476.13;5028622;28;20441;-37
2023/12/31 04:11:59;;;;;;;323.97;310.37;;;;;;;6.79;100.00;100478.78;5038037;28;20435;-38
2023/12/31 04:14:27;;;;;;;317.50;303.50;;;;;;;6.81;100.00;100476.81;5028989;28;20930;-37
2023/12/31 04:16:54;;;;;;;313.77;300.50;;;;;;;6.82;100.00;100473.13;5039677;28;20491;-41
2023/12/31 04:19:22;;;;;;;316.30;302.90;;;;;;;6.82;100.00;100467.84;5025832;28;20851;-38
2023/12/31 04:21:50;;;;;;;314.60;301.10;;;;;;;6.81;100.00;100461.69;5030363;28;20843;-37
2023/12/31 04:24:18;;;;;;;312.23;298.70;;;;;;;6.83;100.00;100465.03;5023016;28;20861;-37
2023/12/31 04:26:47;;;;;;;306.77;292.43;;;;;;;6.83;100.00;100465.03;5023485;28;20484;-38
2023/12/31 04:29:15;;;;;;;303.97;289.77;;;;;;;6.83;100.00;100456.25;5037016;28;20447;-38
2023/12/31 04:31:42;;;;;;;302.60;290.00;;;;;;;6.85;100.00;100460.34;5039264;28;20442;-39
2023/12/31 04:34:10;;;;;;;300.43;287.10;;;;;;;6.85;100.00;100460.34;5038431;28;20440;-37
2023/12/31 04:36:42;;;;;;;313.17;299.20;;;;;;;6.82;100.00;100458.06;5022830;28;20457;-38
2023/12/31 04:39:10;;;;;;;311.60;297.90;;;;;;;6.78;100.00;100451.47;5014543;28;20455;-38
2023/12/31 04:41:38;;;;;;;311.70;297.93;;;;;;;6.80;100.00;100453.94;5030819;28;20443;-40
2023/12/31 04:44:07;;;;;;;316.50;302.43;;;;;;;6.75;100.00;100440.41;5025583;28;20475;-38
2023/12/31 04:46:35;;;;;;;301.40;288.10;;;;;;;6.73;100.00;100439.75;5025870;28;20478;-38
2023/12/31 04:49:03;;;;;;;311.60;297.80;;;;;;;6.69;100.00;100441.94;5033730;28;20459;-37
2023/12/31 04:51:31;;;;;;;298.00;284.77;;;;;;;6.67;100.00;100443.94;5026021;28;20534;-38
2023/12/31 04:53:59;;;;;;;308.43;294.40;;;;;;;6.62;100.00;100433.06;5050414;28;20463;-37
2023/12/31 04:56:27;;;;;;;315.40;301.60;;;;;;;6.63;100.00;100437.38;5025669;28;20856;-35
2023/12/31 04:58:58;;;;;;;310.93;297.23;;;;;;;6.64;100.00;100444.31;5023679;28;20494;-37
2023/12/31 05:01:31;;;;;;;310.93;296.90;;;;;;;6.60;100.00;100437.72;5022625;28;20788;-39
2023/12/31 05:04:00;;;;;;;301.47;288.07;;;;;;;6.61;100.00;100444.66;5040566;28;20508;-38
2023/12/31 05:06:28;;;;;;;307.40;294.07;;;;;;;6.61;100.00;100439.34;5042191;28;20551;-39
2023/12/31 05:08:56;;;;;;;312.60;298.80;;;;;;;6.61;100.00;100426.09;5023261;28;20466;-38
2023/12/31 05:11:25;;;;;;;310.23;296.37;;;;;;;6.58;100.00;100427.28;5022119;28;20445;-37
2023/12/31 05:13:54;;;;;;;323.83;309.83;;;;;;;6.59;100.00;100425.47;5023205;28;20786;-39
2023/12/31 05:16:22;;;;;;;315.77;302.47;;;;;;;6.55;100.00;100411.75;5030449;28;20455;-37
2023/12/31 05:18:52;;;;;;;305.20;291.60;;;;;;;6.57;100.00;100416.88;5027957;28;20824;-39
2023/12/31 05:21:20;;;;;;;309.40;295.27;;;;;;;6.56;100.00;100412.59;5042796;28;20800;-39
2023/12/31 05:23:48;;;;;;;313.27;300.07;;;;;;;6.55;100.00;100416.22;5041271;28;20527;-39
2023/12/31 05:26:16;;;;;;;315.67;301.90;;;;;;;6.54;100.00;100404.00;5021867;28;20460;-37
2023/12/31 05:28:43;;;;;;;316.57;302.60;;;;;;;6.53;100.00;100407.63;5020940;28;20556;-39
2023/12/31 05:31:11;;;;;;;312.20;298.33;;;;;;;6.52;100.00;100409.47;5024057;28;20432;-42
2023/12/31 05:33:41;;;;;;;313.47;299.63;;;;;;;6.51;100.00;100396.41;5032347;28;20522;-41
2023/12/31 05:36:11;;;;;;;308.67;294.60;;;;;;;6.50;100.00;100405.34;5038567;28;20967;-40
2023/12/31 05:38:38;;;;;;;313.43;299.30;;;;;;;6.48;100.00;100392.25;5035118;28;20459;-40
2023/12/31 05:41:06;;;;;;;320.60;306.40;;;;;;;6.48;100.00;100394.91;5026019;28;20463;-38
2023/12/31 05:43:34;;;;;;;321.90;307.50;;;;;;;6.44;100.00;100387.53;5041490;28;20448;-44
2023/12/31 05:46:02;;;;;;;324.73;310.23;;;;;;;6.46;100.00;100382.84;5022503;28;20467;-37
2023/12/31 05:48:30;;;;;;;322.73;308.70;;;;;;;6.47;100.00;100377.41;5020828;28;20558;-38
2023/12/31 05:50:59;;;;;;;322.50;308.20;;;;;;;6.44;100.00;100371.63;5024329;28;20983;-38
2023/12/31 05:53:28;;;;;;;330.73;316.33;;;;;;;6.44;100.00;100363.69;5034240;28;20476;-41
2023/12/31 05:55:56;;;;;;;331.03;316.63;;;;;;;6.42;100.00;100366.50;5038578;28;21183;-39
2023/12/31 05:58:24;;;;;;;326.80;312.77;;;;;;;6.39;100.00;100366.84;5029178;28;20459;-38
2023/12/31 06:00:52;;;;;;;335.97;321.43;;;;;;;6.38;100.00;100361.75;5043743;28;20493;-37
2023/12/31 06:03:20;;;;;;;339.50;324.30;;;;;;;6.36;100.00;100361.91;5024427;28;20808;-39
2023/12/31 06:05:48;;;;;;;330.40;315.03;;;;;;;6.35;100.00;100352.34;5024642;28;21061;-39
2023/12/31 06:08:16;;;;;;;323.70;309.60;;;;;;;6.32;100.00;100349.22;5027860;28;20463;-41
2023/12/31 06:10:45;;;;;;;326.47;311.70;;;;;;;6.33;100.00;100345.56;5029362;28;20464;-39
2023/12/31 06:13:13;;;;;;;316.33;301.90;;;;;;;6.30;100.00;100330.03;5043858;28;20496;-39
2023/12/31 06:15:41;;;;;;;328.80;314.13;;;;;;;6.28;100.00;100326.72;5029859;28;20515;-37
2023/12/31 06:18:09;;;;;;;321.37;306.97;;;;;;;6.29;100.00;100326.56;5036629;28;20456;-40
2023/12/31 06:20:38;;;;;;;331.20;316.40;;;;;;;6.30;100.00;100324.75;5025634;28;20522;-39
2023/12/31 06:23:05;;;;;;;341.93;327.23;;;;;;;6.29;100.00;100320.44;5023987;28;20441;-37
2023/12/31 06:25:33;;;;;;;346.47;331.27;;;;;;;6.26;100.00;100315.50;5030088;28;21045;-38
2023/12/31 06:28:02;;;;;;;335.07;320.40;;;;;;;6.25;100.00;100309.38;5026705;28;20519;-37
2023/12/31 06:30:30;;;;;;;334.00;318.87;;;;;;;6.24;100.00;100313.06;5032910;28;20939;-38
2023/12/31 06:32:58;;;;;;;323.53;309.50;;;;;;;6.22;100.00;100304.44;5022374;28;20986;-41
2023/12/31 06:35:26;;;;;;;330.83;316.47;;;;;;;6.28;100.00;100305.56;5034212;28;20468;-39
2023/12/31 06:37:54;;;;;;;331.63;317.17;;;;;;;6.24;100.00;100305.09;5035946;28;20479;-38
2023/12/31 06:40:22;;;;;;;333.33;318.60;;;;;;;6.23;100.00;100299.97;5032815;28;20920;-39
2023/12/31 06:42:50;;;;;;;344.33;329.40;;;;;;;6.24;100.00;100296.34;5023698;28;20528;-40
2023/12/31 06:45:19;;;;;;;345.13;329.10;;;;;;;6.25;100.00;100284.72;5019530;28;20436;-39
2023/12/31 06:47:47;;;;;;;330.13;315.63;;;;;;;6.21;100.00;100286.94;5027732;28;20565;-38
2023/12/31 06:50:15;;;;;;;339.93;324.83;;;;;;;6.21;100.00;100296.69;5023423;28;20830;-39
2023/12/31 06:52:43;;;;;;;330.30;315.93;;;;;;;6.20;100.00;100284.44;5023559;28;20965;-38
2023/12/31 06:55:12;;;;;;;332.67;317.40;;;;;;;6.22;100.00;100277.13;5020617;28;20467;-39
2023/12/31 06:57:40;;;;;;;334.03;319.27;;;;;;;6.19;100.00;100280.16;5019604;28;20492;-39
2023/12/31 07:00:09;;;;;;;327.40;312.57;;;;;;;6.21;100.00;100280.81;5038503;28;20442;-37
2023/12/31 07:02:38;;;;;;;322.13;307.73;;;;;;;6.21;100.00;100279.00;5023102;28;20472;-37
2023/12/31 07:05:08;;;;;;;313.20;299.60;;;;;;;6.20;100.00;100277.34;5021348;28;20994;-38
2023/12/31 07:07:37;;;;;;;311.20;297.80;;;;;;;6.24;100.00;100280.44;5019510;28;21095;-38
2023/12/31 07:10:05;;;;;;;313.50;298.83;;;;;;;6.22;100.00;100277.13;5039349;28;20454;-38
2023/12/31 07:12:34;;;;;;;310.50;296.93;;;;;;;6.24;100.00;100277.81;5032360;28;20437;-39
2023/12/31 07:15:02;;;;;;;317.23;303.27;;;;;;;6.25;100.00;100268.84;5021093;28;20445;-38
2023/12/31 07:17:30;;;;;;;310.10;296.60;;;;;;;6.25;100.00;100263.53;5039061;28;20950;-39
2023/12/31 07:20:00;;;;;;;309.90;296.20;;;;;;;6.24;100.00;100268.03;5022134;28;20440;-39
2023/12/31 07:22:28;;;;;;;311.63;297.90;;;;;;;6.21;100.00;100256.97;5029133;28;20439;-38
2023/12/31 07:24:56;;;;;;;314.87;300.60;;;;;;;6.18;100.00;100250.22;5042855;28;20436;-38
2023/12/31 07:27:24;;;;;;;318.40;304.73;;;;;;;6.13;100.00;100252.56;5026833;28;20486;-42
2023/12/31 07:29:51;;;;;;;321.20;306.93;;;;;;;6.12;100.00;100240.34;5042968;28;20440;-38
2023/12/31 07:32:19;;;;;;;328.17;313.93;;;;;;;6.10;100.00;100247.63;5026341;28;20439;-39
2023/12/31 07:34:47;;;;;;;308.73;295.30;;;;;;;6.10;100.00;100237.03;5033673;28;20479;-37
2023/12/31 07:37:16;;;;;;;316.43;302.73;;;;;;;6.09;100.00;100244.16;5019502;28;20480;-39
2023/12/31 07:39:44;;;;;;;313.73;299.80;;;;;;;6.08;100.00;100239.88;5018134;28;20535;-38
2023/12/31 07:42:12;;;;;;;318.33;304.67;;;;;;;6.03;100.00;100230.84;5039250;28;20463;-38
2023/12/31 07:44:39;;;;;;;309.03;295.43;;;;;;;6.03;100.00;100234.28;5022658;28;20436;-38
2023/12/31 07:47:07;;;;;;;321.20;307.40;;;;;;;6.00;100.00;100229.34;5019878;28;20496;-38
2023/12/31 07:49:36;;;;;;;309.73;296.23;;;;;;;6.02;100.00;100226.53;5029620;28;20463;-38
2023/12/31 07:52:04;;;;;;;314.73;300.87;;;;;;;5.99;100.00;100227.72;5042401;28;20493;-37
2023/12/31 07:54:33;;;;;;;306.03;292.43;;;;;;;6.00;100.00;100224.06;5050244;28;20918;-39
2023/12/31 07:57:01;;;;;;;309.60;296.10;;;;;;;5.99;100.00;100208.38;5041067;28;20512;-38
2023/12/31 07:59:30;;;;;;;307.73;294.43;;;;;;;5.96;100.00;100206.09;5014220;28;20433;-37
2023/12/31 08:01:59;;;;;;;307.53;294.13;;;;;;;5.92;100.00;100200.31;5043425;28;20514;-37
2023/12/31 08:04:28;;;;;;;303.83;290.63;;;;;;;5.93;100.00;100201.16;5022900;28;20432;-37
2023/12/31 08:06:55;;;;;;;307.67;294.10;;;;;;;5.93;100.00;100209.09;5030183;28;20970;-38
2023/12/31 08:09:23;;;;;;;304.50;291.20;;;;;;;5.96;100.00;100211.38;5026315;28;20467;-37
2023/12/31 08:11:52;;;;;;;305.40;292.40;;;;;;;5.97;100.00;100219.13;5050664;28;21018;-37
2023/12/31 08:14:20;;;;;;;309.83;296.43;;;;;;;5.97;100.00;100219.13;5025721;28;20435;-37
2023/12/31 08:16:48;;;;;;;307.03;292.93;;;;;;;5.97;100.00;100213.81;5027354;28;21256;-37
2023/12/31 08:19:16;;;;;;;302.67;289.83;;;;;;;5.97;100.00;100208.53;5037745;28;20484;-38
2023/12/31 08:21:45;;;;;;;302.00;289.00;;;;;;;5.99;100.00;100211.84;5030243;28;20468;-38
2023/12/31 08:24:18;;;;;;;299.57;286.57;;;;;;;6.00;100.00;100210.03;5021530;28;20440;-37
2023/12/31 08:26:46;;;;;;;303.93;290.93;;;;;;;6.01;100.00;100209.84;5044840;28;20458;-36
2023/12/31 08:29:16;;;;;;;298.97;285.60;;;;;;;6.03;100.00;100207.81;5047307;28;20576;-36
2023/12/31 08:31:49;;;;;;;304.07;290.47;;;;;;;6.06;100.00;100202.16;5022134;28;20436;-36
2023/12/31 08:34:17;;;;;;;303.70;290.63;;;;;;;6.07;100.00;100198.53;5038956;28;20440;-38
2023/12/31 08:36:46;;;;;;;314.83;301.30;;;;;;;6.10;100.00;100187.56;5036670;28;20460;-36
2023/12/31 08:39:14;;;;;;;311.87;297.90;;;;;;;6.13;100.00;100191.69;5019410;28;21017;-37
2023/12/31 08:41:42;;;;;;;318.40;304.90;;;;;;;6.17;100.00;100181.56;5022060;28;20459;-36
2023/12/31 08:44:09;;;;;;;312.23;298.60;;;;;;;6.18;100.00;100181.38;5020634;28;20446;-37
2023/12/31 08:46:39;;;;;;;315.60;301.33;;;;;;;6.26;100.00;100172.53;5029011;28;20463;-37
2023/12/31 08:49:07;;;;;;;327.23;313.30;;;;;;;6.27;100.00;100169.72;5028435;28;20480;-38
2023/12/31 08:51:35;;;;;;;311.27;297.80;;;;;;;6.24;100.00;100162.13;5015838;28;20962;-37
2023/12/31 08:54:03;;;;;;;324.50;310.40;;;;;;;6.20;100.00;100160.84;5019198;28;20448;-36
2023/12/31 08:56:31;;;;;;;314.50;300.07;;;;;;;6.26;100.00;100160.13;5041918;28;20459;-39
2023/12/31 08:58:58;;;;;;;323.13;309.03;;;;;;;6.28;100.00;100163.38;5041350;28;20456;-37
2023/12/31 09:01:26;;;;;;;319.07;304.87;;;;;;;6.32;100.00;100154.09;5025905;28;20470;-37
2023/12/31 09:03:56;;;;;;;323.93;309.97;;;;;;;6.37;100.00;100157.00;5042062;28;20439;-37
2023/12/31 09:06:24;;;;;;;330.87;316.70;;;;;;;6.38;100.00;100148.06;5025049;28;20463;-38
2023/12/31 09:08:51;;;;;;;328.03;313.73;;;;;;;6.42;100.00;100143.22;5040343;28;20549;-41
2023/12/31 09:11:20;;;;;;;322.47;308.47;;;;;;;6.44;100.00;100143.84;5020771;28;20527;-38
2023/12/31 09:13:48;;;;;;;324.60;310.43;;;;;;;6.41;100.00;100136.28;5037131;28;20834;-39
2023/12/31 09:16:16;;;;;;;327.03;312.80;;;;;;;6.43;100.00;100136.91;5051977;28;21182;-38
2023/12/31 09:18:44;;;;;;;332.47;318.33;;;;;;;6.47;100.00;100132.88;5044832;28;20455;-37
2023/12/31 09:21:13;;;;;;;333.17;318.73;;;;;;;6.47;100.00;100130.22;5035047;28;20467;-39
2023/12/31 09:23:41;;;;;;;322.80;308.70;;;;;;;6.57;100.00;100123.63;5033995;22;21001;-40
2023/12/31 09:26:10;;;;;;;323.10;308.77;;;;;;;6.60;100.00;100123.25;4992274;28;20538;-42
2023/12/31 09:28:39;;;;;;;324.40;311.00;;;;;;;6.67;100.00;100110.09;4993790;28;20478;-42
2023/12/31 09:31:07;;;;;;;323.00;309.33;;;;;;;6.65;100.00;100106.81;4986260;28;20925;-41
2023/12/31 09:33:35;;;;;;;322.90;309.17;;;;;;;6.70;100.00;100107.06;4989735;28;20462;-40
2023/12/31 09:36:04;;;;;;;323.50;309.90;;;;;;;6.76;100.00;100108.97;4982908;28;20446;-42
2023/12/31 09:38:34;;;;;;;322.70;309.03;;;;;;;6.71;100.00;100100.78;4993735;28;20516;-42
2023/12/31 09:41:05;;;;;;;317.87;304.43;;;;;;;6.78;100.00;100099.00;4986246;28;20829;-42
2023/12/31 09:43:34;;;;;;;331.43;317.13;;;;;;;6.81;100.00;100087.22;4986926;28;20464;-43
2023/12/31 09:46:05;;;;;;;321.93;308.57;;;;;;;6.83;100.00;100078.06;4993560;28;20528;-46
2023/12/31 09:48:35;;;;;;;315.80;302.60;;;;;;;6.85;100.00;100076.03;4986202;28;20976;-43
2023/12/31 09:51:05;;;;;;;317.00;304.17;;;;;;;6.89;100.00;100074.66;4985952;28;20441;-42
2023/12/31 09:53:35;;;;;;;307.50;295.00;;;;;;;6.94;100.00;100074.09;4994081;28;20512;-44
2023/12/31 09:56:06;;;;;;;313.37;300.13;;;;;;;6.98;100.00;100070.88;4985676;28;21021;-44
2023/12/31 09:58:36;;;;;;;302.53;290.10;;;;;;;6.96;100.00;100056.19;4985251;28;20826;-42
2023/12/31 10:01:04;;;;;;;294.93;282.43;;;;;;;7.00;100.00;100050.31;4985942;28;20477;-42
2023/12/31 10:03:32;;;;;;;294.10;281.97;;;;;;;7.01;100.00;100049.31;4993274;28;20545;-41
2023/12/31 10:06:02;;;;;;;295.90;283.73;;;;;;;7.02;100.00;100050.91;4992194;28;20794;-41
2023/12/31 10:08:30;;;;;;;295.90;283.90;;;;;;;7.04;100.00;100042.78;4987995;28;20470;-42
2023/12/31 10:11:02;;;;;;;283.50;271.77;;;;;;;7.05;100.00;100029.34;4994793;28;20568;-45
2023/12/31 10:13:30;;;;;;;275.80;264.20;;;;;;;7.06;100.00;100024.84;4978313;28;20473;-44
2023/12/31 10:15:58;;;;;;;277.33;266.00;;;;;;;7.06;100.00;100016.91;4994654;28;20445;-41
2023/12/31 10:18:26;;;;;;;279.20;267.50;;;;;;;7.08;100.00;100013.03;4993820;28;20984;-45
2023/12/31 10:20:54;;;;;;;272.10;261.00;;;;;;;7.06;100.00;100020.38;4994722;28;20438;-43
2023/12/31 10:23:22;;;;;;;272.23;260.97;;;;;;;7.09;100.00;100011.22;4994286;28;20461;-41
2023/12/31 10:25:49;;;;;;;269.83;258.83;;;;;;;7.07;100.00;99997.34;4987373;28;20470;-41
2023/12/31 10:28:19;;;;;;;267.43;256.87;;;;;;;7.06;100.00;100001.00;4990927;28;20465;-41
2023/12/31 10:30:48;;;;;;;263.10;252.60;;;;;;;7.11;100.00;99995.94;4993377;28;20489;-40
2023/12/31 10:33:17;;;;;;;257.60;247.17;;;;;;;7.13;100.00;99992.09;4993213;28;20553;-40
2023/12/31 10:35:47;;;;;;;268.87;258.00;;;;;;;7.19;100.00;99980.72;4993198;28;20444;-40
2023/12/31 10:38:15;;;;;;;261.17;250.73;;;;;;;7.23;100.00;99979.31;4990109;28;20486;-41
2023/12/31 10:40:45;;;;;;;252.13;241.63;;;;;;;7.24;100.00;99975.66;4981618;28;20435;-41
2023/12/31 10:43:16;;;;;;;246.77;236.80;;;;;;;7.23;100.00;99974.00;4984867;28;20572;-42
2023/12/31 10:45:45;;;;;;;246.87;237.00;;;;;;;7.23;100.00;99975.81;4993167;28;21135;-41
2023/12/31 10:48:15;;;;;;;247.27;237.57;;;;;;;7.28;100.00;99978.75;4992141;28;20549;-43
2023/12/31 10:50:49;;;;;;;229.33;219.70;;;;;;;7.33;100.00;99970.19;4992935;28;20478;-42
2023/12/31 10:53:19;;;;;;;241.63;232.03;;;;;;;7.32;100.00;99964.06;4992776;28;20904;-41
2023/12/31 10:55:48;;;;;;;241.10;231.40;;;;;;;7.37;100.00;99960.84;4992684;28;20964;-41
2023/12/31 10:58:16;;;;;;;235.80;226.30;;;;;;;7.42;100.00;99953.09;4991969;28;20462;-41
2023/12/31 11:00:46;;;;;;;234.43;224.93;;;;;;;7.45;100.00;99942.94;4987736;28;20446;-45